Time;durP1;ratioP1;P1;durP2;ratioP2;P2;SDS_P1;SDS_P2;PMS_P1;PMS_P2;Temp;Humidity;BMP_temperature;BMP_pressure;BME280_temperature;BME280_humidity;BME280_pressure;Samples;Min_cycle;Max_cycle;Signal;HPM_P1;HPM_P2
2022/04/18 00:00:44;;;;;;;3.00;2.60;;;;;;;7.56;62.05;101359.03;5169317;27;20403;-61
2022/04/18 00:03:11;;;;;;;5.00;4.50;;;;;;;7.44;62.20;101355.69;5168914;27;20865;-62
2022/04/18 00:05:38;;;;;;;2.13;2.00;;;;;;;7.45;62.35;101360.84;5168874;27;20921;-62
2022/04/18 00:08:05;;;;;;;1.55;1.45;;;;;;;7.51;61.46;101358.59;5168857;27;20416;-61
2022/04/18 00:10:32;;;;;;;1.60;1.50;;;;;;;7.50;61.55;101351.69;5169155;27;20403;-62
2022/04/18 00:12:59;;;;;;;1.60;1.50;;;;;;;7.43;62.19;101356.66;5169191;27;20415;-62
2022/04/18 00:15:26;;;;;;;12.52;11.52;;;;;;;7.38;61.71;101346.50;5168802;27;20403;-62
2022/04/18 00:17:55;;;;;;;8.90;8.05;;;;;;;7.43;61.82;101346.09;5168700;27;20929;-62
2022/04/18 00:20:22;;;;;;;10.20;9.30;;;;;;;7.45;62.58;101342.38;5168872;27;20403;-62
2022/04/18 00:22:49;;;;;;;10.35;9.45;;;;;;;7.49;61.92;101336.81;5178988;27;20508;-62
2022/04/18 00:25:16;;;;;;;10.10;9.15;;;;;;;7.51;61.92;101337.50;5189879;27;20406;-61
2022/04/18 00:27:43;;;;;;;9.00;8.25;;;;;;;7.51;61.58;101341.00;5189431;27;20850;-61
2022/04/18 00:30:10;;;;;;;9.95;9.10;;;;;;;7.44;62.22;101338.06;5189919;27;20434;-61
2022/04/18 00:32:37;;;;;;;10.40;9.45;;;;;;;7.47;62.05;101335.16;5189761;27;20438;-61
2022/04/18 00:35:08;;;;;;;8.57;7.80;;;;;;;7.46;62.10;101330.84;5189607;27;20398;-62
2022/04/18 00:37:39;;;;;;;5.70;5.20;;;;;;;7.46;61.56;101324.72;5189312;27;20866;-61
2022/04/18 00:40:12;;;;;;;5.15;4.68;;;;;;;7.30;62.33;101327.88;5118393;27;20398;-63
2022/04/18 00:42:43;;;;;;;5.07;4.68;;;;;;;7.35;62.45;101328.31;5086940;28;20417;-63
2022/04/18 00:45:11;;;;;;;5.28;4.80;;;;;;;7.38;62.59;101324.56;5065548;28;20419;-63
2022/04/18 00:47:38;;;;;;;3.50;3.20;;;;;;;7.37;62.03;101326.38;5047093;28;20499;-63
2022/04/18 00:50:06;;;;;;;3.90;3.60;;;;;;;7.39;62.72;101318.31;5046750;28;20871;-63
2022/04/18 00:52:34;;;;;;;3.90;3.50;;;;;;;7.36;62.15;101321.22;5046625;28;20860;-63
2022/04/18 00:55:02;;;;;;;4.65;4.28;;;;;;;7.33;62.56;101316.22;5046560;28;20449;-63
2022/04/18 00:57:33;;;;;;;4.50;4.20;;;;;;;7.38;62.53;101314.00;5046500;28;20417;-63
2022/04/18 01:00:24;;;;;;;3.90;3.50;;;;;;;7.36;63.09;101314.13;5159232;27;864403;-63
2022/04/18 01:03:48;;;;;;;4.43;3.80;;;;;;;7.38;62.81;101301.69;5118383;27;20784;-63
2022/04/18 01:06:16;;;;;;;4.13;3.83;;;;;;;7.45;62.98;101304.59;5086952;28;20414;-63
2022/04/18 01:08:44;;;;;;;3.63;3.30;;;;;;;7.43;62.01;101301.25;5087316;28;20407;-62
2022/04/18 01:11:11;;;;;;;3.00;2.80;;;;;;;7.40;61.56;101298.88;5086934;28;20911;-63
2022/04/18 01:13:41;;;;;;;3.28;3.00;;;;;;;7.47;61.61;101300.00;5087222;28;20410;-62
2022/04/18 01:16:09;;;;;;;3.50;3.20;;;;;;;7.57;61.91;101298.22;5087136;28;20432;-62
2022/04/18 01:18:36;;;;;;;4.35;4.00;;;;;;;7.58;62.05;101293.78;5086825;28;20414;-62
2022/04/18 01:21:04;;;;;;;4.38;3.97;;;;;;;7.60;62.14;101294.50;5087008;28;20830;-62
2022/04/18 01:23:32;;;;;;;4.28;3.90;;;;;;;7.58;62.18;101283.22;5070450;28;20463;-62
2022/04/18 01:30:40;;;;;;;5.13;4.63;;;;;;;7.57;62.45;101279.75;5160007;27;844391;-62
2022/04/18 01:33:07;;;;;;;5.25;4.85;;;;;;;7.60;62.30;101274.22;5190704;27;20405;-63
2022/04/18 01:35:36;;;;;;;4.83;4.10;;;;;;;7.64;61.99;101277.41;5190534;27;20433;-62
2022/04/18 01:38:03;;;;;;;3.67;3.38;;;;;;;7.57;61.92;101278.94;5190113;27;20823;-63
2022/04/18 01:42:52;;;;;;;3.90;3.60;;;;;;;7.67;61.19;101274.53;5107392;27;20407;-62
2022/04/18 01:47:37;;;;;;;3.70;3.40;;;;;;;7.68;60.78;101268.25;5118385;27;20405;-65
2022/04/18 01:50:04;;;;;;;4.00;3.60;;;;;;;7.66;60.57;101263.09;5080539;28;20949;-63
2022/04/18 01:52:32;;;;;;;4.00;3.60;;;;;;;7.68;60.88;101262.97;5046929;28;20456;-63
2022/04/18 01:54:59;;;;;;;4.13;3.72;;;;;;;7.66;60.81;101257.00;5047159;28;20460;-63
2022/04/18 01:57:26;;;;;;;4.15;3.85;;;;;;;7.69;61.27;101256.75;5046841;28;20479;-63
2022/04/18 01:59:53;;;;;;;4.37;4.07;;;;;;;7.68;61.21;101259.50;5046714;28;20496;-63
2022/04/18 02:02:20;;;;;;;4.30;3.90;;;;;;;7.70;61.17;101254.94;5046966;28;20460;-66
2022/04/18 02:04:48;;;;;;;4.30;4.00;;;;;;;7.66;60.96;101252.56;5046497;28;20413;-64
2022/04/18 02:07:15;;;;;;;3.73;3.43;;;;;;;7.65;60.71;101247.41;5046170;28;20441;-63
2022/04/18 02:09:42;;;;;;;3.95;3.55;;;;;;;7.68;61.37;101249.78;5046847;28;20494;-63
2022/04/18 02:12:10;;;;;;;3.65;3.35;;;;;;;7.73;60.84;101254.66;5046742;28;20441;-62
2022/04/18 02:15:27;;;;;;;3.50;3.23;;;;;;;7.68;60.20;101247.13;5159554;27;864109;-61
2022/04/18 02:17:54;;;;;;;3.50;3.20;;;;;;;7.60;60.09;101245.19;5190312;27;20413;-62
2022/04/18 02:20:31;;;;;;;3.80;3.50;;;;;;;7.66;60.54;101249.91;5118364;27;20405;-62
2022/04/18 02:22:58;;;;;;;4.72;4.40;;;;;;;7.64;60.71;101237.84;5076125;28;20447;-63
2022/04/18 02:25:25;;;;;;;5.30;4.90;;;;;;;7.60;61.35;101236.47;5066655;28;20447;-63
2022/04/18 02:27:52;;;;;;;5.22;4.72;;;;;;;7.61;61.89;101235.47;5066599;28;20415;-60
2022/04/18 02:30:20;;;;;;;5.63;5.13;;;;;;;7.53;62.04;101227.44;5066974;28;20416;-60
2022/04/18 02:33:11;;;;;;;5.15;4.72;;;;;;;7.49;61.83;101224.22;5118381;27;20406;-61
2022/04/18 02:35:38;;;;;;;5.00;4.60;;;;;;;7.55;61.53;101223.66;5086976;28;20915;-61
2022/04/18 02:38:06;;;;;;;5.00;4.60;;;;;;;7.56;61.33;101211.31;5087284;28;20441;-61
2022/04/18 02:40:33;;;;;;;5.10;4.70;;;;;;;7.58;61.59;101214.63;5086876;28;20410;-61
2022/04/18 02:43:00;;;;;;;5.10;4.70;;;;;;;7.62;61.85;101208.97;5087194;28;20422;-61
2022/04/18 02:45:29;;;;;;;5.50;5.00;;;;;;;7.60;61.59;101207.44;5087378;28;20837;-61
2022/04/18 02:47:56;;;;;;;5.60;5.17;;;;;;;7.62;61.72;101201.03;5086676;28;20438;-61
2022/04/18 02:50:24;;;;;;;6.00;5.40;;;;;;;7.60;61.83;101205.63;5086708;28;20414;-60
2022/04/18 02:52:51;;;;;;;6.05;5.55;;;;;;;7.66;61.58;101206.88;5086606;28;20429;-61
2022/04/18 02:55:18;;;;;;;6.10;5.50;;;;;;;7.64;61.24;101200.91;5087031;28;20420;-60
2022/04/18 02:57:45;;;;;;;6.72;6.13;;;;;;;7.58;60.93;101204.06;5086949;28;20421;-61
2022/04/18 03:00:13;;;;;;;7.60;6.90;;;;;;;7.55;61.76;101196.47;5086872;28;20417;-61
2022/04/18 03:02:41;;;;;;;7.60;6.93;;;;;;;7.59;61.54;101198.66;5086445;28;20907;-61
2022/04/18 03:05:10;;;;;;;8.90;8.10;;;;;;;7.63;61.70;101189.53;5086397;28;20420;-61
2022/04/18 03:07:39;;;;;;;77.38;57.60;;;;;;;7.65;62.29;101187.56;5075995;28;20412;-61
2022/04/18 03:10:07;;;;;;;13.55;12.15;;;;;;;7.71;62.25;101186.19;5066124;28;20930;-60
2022/04/18 03:15:03;;;;;;;7.53;6.93;;;;;;;7.77;61.47;101192.69;5089749;27;20409;-61
2022/04/18 03:17:30;;;;;;;6.55;5.95;;;;;;;7.72;61.61;101198.38;5064870;28;20850;-61
2022/04/18 03:19:57;;;;;;;19.08;17.77;;;;;;;7.71;61.85;101193.28;5065637;28;20862;-61
2022/04/18 03:23:35;;;;;;;6.40;5.90;;;;;;;7.75;61.61;101189.38;5098370;27;20951;-60
2022/04/18 03:26:02;;;;;;;5.72;5.22;;;;;;;7.76;61.67;101191.03;5066332;28;20457;-60
2022/04/18 03:30:44;;;;;;;6.68;6.18;;;;;;;7.78;61.87;101195.22;5092355;27;20402;-61
2022/04/18 03:33:11;;;;;;;8.35;7.75;;;;;;;7.77;61.21;101190.06;5066459;28;20420;-61
2022/04/18 03:35:38;;;;;;;5.30;4.90;;;;;;;7.79;61.37;101188.13;5065081;28;20944;-61
2022/04/18 03:41:09;;;;;;;7.60;7.00;;;;;;;7.78;61.57;101173.28;5063988;28;20550;-61
2022/04/18 03:43:36;;;;;;;11.68;10.88;;;;;;;7.82;61.07;101186.03;5065422;28;20455;-61
2022/04/18 03:46:05;;;;;;;6.90;6.30;;;;;;;7.81;61.27;101179.09;5063190;28;20524;-62
2022/04/18 03:48:31;;;;;;;6.40;5.80;;;;;;;7.82;60.81;101179.94;5056557;28;20461;-61
2022/04/18 03:50:58;;;;;;;6.53;5.85;;;;;;;7.80;60.54;101176.59;5056368;28;20419;-61
2022/04/18 03:53:25;;;;;;;6.10;5.60;;;;;;;7.81;60.44;101179.09;5064103;28;20408;-61
2022/04/18 03:55:53;;;;;;;5.50;5.00;;;;;;;7.83;60.40;101182.44;5064213;28;20865;-61
2022/04/18 03:58:19;;;;;;;6.20;5.70;;;;;;;7.85;60.23;101166.47;5064774;28;20933;-61
2022/04/18 04:00:46;;;;;;;7.82;7.13;;;;;;;7.81;59.76;101170.31;5066964;28;20419;-62
2022/04/18 04:03:15;;;;;;;7.35;6.75;;;;;;;7.82;59.39;101154.34;5065608;28;20443;-61
2022/04/18 04:05:42;;;;;;;6.55;6.00;;;;;;;7.85;59.94;101159.38;5064045;28;20454;-61
2022/04/18 04:08:09;;;;;;;8.30;7.63;;;;;;;7.85;60.16;101159.38;5065177;28;20458;-61
2022/04/18 04:10:36;;;;;;;12.20;11.40;;;;;;;7.90;59.67;101164.19;5064026;28;20519;-61
2022/04/18 04:13:03;;;;;;;7.03;6.38;;;;;;;7.90;59.25;101166.00;5064580;28;20419;-61
2022/04/18 04:15:30;;;;;;;8.20;7.50;;;;;;;7.93;59.69;101161.28;5065259;28;20529;-61
2022/04/18 04:17:57;;;;;;;7.53;6.82;;;;;;;7.94;60.07;101159.47;5063319;28;20428;-61
2022/04/18 04:20:25;;;;;;;8.60;6.43;;;;;;;7.94;60.09;101164.75;5064041;28;20917;-60
2022/04/18 04:22:52;;;;;;;10.73;9.73;;;;;;;7.94;59.92;101162.09;5063979;28;20933;-62
2022/04/18 04:25:19;;;;;;;9.30;8.40;;;;;;;7.94;60.31;101160.31;5064407;28;21271;-61
2022/04/18 04:27:46;;;;;;;6.53;5.93;;;;;;;7.95;59.87;101147.94;5065248;28;20408;-60
2022/04/18 04:30:13;;;;;;;11.95;10.90;;;;;;;7.95;59.87;101154.06;5065016;28;21001;-61
2022/04/18 04:32:40;;;;;;;17.70;16.10;;;;;;;7.96;59.62;101153.09;5064950;28;20420;-61
2022/04/18 04:35:08;;;;;;;8.80;7.90;;;;;;;8.00;59.23;101149.19;5064866;28;20466;-61
2022/04/18 04:37:36;;;;;;;8.50;7.10;;;;;;;7.99;59.83;101151.97;5063365;28;21023;-60
2022/04/18 04:40:04;;;;;;;7.82;7.00;;;;;;;8.06;59.58;101162.78;5062662;28;20491;-60
2022/04/18 04:42:31;;;;;;;6.43;5.78;;;;;;;8.07;59.78;101160.00;5050505;28;20482;-64
2022/04/18 04:44:58;;;;;;;6.57;5.30;;;;;;;8.11;59.88;101161.38;5049091;28;20439;-60
2022/04/18 04:47:25;;;;;;;5.75;5.25;;;;;;;8.21;60.15;101153.44;5049295;28;20822;-61
2022/04/18 04:49:52;;;;;;;7.90;7.30;;;;;;;8.30;59.05;101155.22;5050275;28;20432;-63
2022/04/18 04:52:20;;;;;;;3.83;3.53;;;;;;;8.42;59.27;101154.09;5049470;28;20459;-61
2022/04/18 04:54:49;;;;;;;3.25;2.95;;;;;;;8.53;59.47;101158.34;5050513;28;20905;-61
2022/04/18 04:57:16;;;;;;;3.70;3.40;;;;;;;8.69;58.87;101157.72;5051035;28;20415;-60
2022/04/18 04:59:43;;;;;;;5.40;4.50;;;;;;;8.80;59.28;101156.69;5051480;28;20444;-61
2022/04/18 05:02:10;;;;;;;11.40;10.13;;;;;;;8.91;58.36;101153.88;5051487;28;20456;-60
2022/04/18 05:04:37;;;;;;;7.60;6.68;;;;;;;8.96;57.86;101156.88;5051154;28;20936;-61
2022/04/18 05:07:04;;;;;;;4.80;4.40;;;;;;;9.02;56.88;101160.78;5051702;28;20452;-61
2022/04/18 05:09:31;;;;;;;5.45;4.95;;;;;;;9.05;56.51;101157.81;5051472;28;20476;-61
2022/04/18 05:11:59;;;;;;;4.63;4.22;;;;;;;9.18;56.60;101153.00;5051621;28;20448;-60
2022/04/18 05:14:26;;;;;;;6.07;5.00;;;;;;;9.26;56.63;101148.78;5051532;28;20440;-60
2022/04/18 05:16:53;;;;;;;13.02;11.93;;;;;;;9.40;55.83;101153.53;5051400;28;20448;-60
2022/04/18 05:19:20;;;;;;;27.98;26.08;;;;;;;9.40;55.65;101155.34;5051064;28;20452;-60
2022/04/18 05:21:47;;;;;;;10.40;8.45;;;;;;;9.43;55.21;101158.50;5051338;28;20412;-61
2022/04/18 05:24:14;;;;;;;17.75;13.23;;;;;;;9.41;54.98;101157.84;5050989;28;20447;-61
2022/04/18 05:26:41;;;;;;;25.07;21.10;;;;;;;9.37;54.95;101159.13;5050240;28;20454;-61
2022/04/18 05:29:09;;;;;;;23.43;16.53;;;;;;;9.37;55.44;101162.59;5050047;28;20436;-62
2022/04/18 05:31:36;;;;;;;24.95;18.10;;;;;;;9.42;55.30;101161.31;5050620;28;20440;-61
2022/04/18 05:34:03;;;;;;;18.65;13.88;;;;;;;9.46;55.94;101157.38;5050898;28;20412;-62
2022/04/18 05:36:30;;;;;;;18.25;13.77;;;;;;;9.51;55.84;101155.13;5050281;28;20922;-61
2022/04/18 05:38:57;;;;;;;12.65;10.13;;;;;;;9.70;55.84;101156.75;5050688;28;20519;-61
2022/04/18 05:41:24;;;;;;;9.80;7.95;;;;;;;9.78;54.55;101156.84;5050306;28;20459;-61
2022/04/18 05:43:51;;;;;;;13.00;9.13;;;;;;;9.88;54.27;101151.44;5050455;28;20501;-60
2022/04/18 05:46:19;;;;;;;14.57;10.30;;;;;;;9.98;54.26;101154.00;5050459;28;20440;-61
2022/04/18 05:48:46;;;;;;;10.13;8.47;;;;;;;10.21;51.50;101149.00;5047692;28;20506;-61
2022/04/18 05:51:14;;;;;;;11.37;9.40;;;;;;;10.35;52.37;101153.72;5049833;28;20440;-61
2022/04/18 05:53:41;;;;;;;9.52;7.78;;;;;;;10.46;52.32;101156.13;5057014;28;20417;-61
2022/04/18 05:56:08;;;;;;;7.38;6.20;;;;;;;10.30;51.51;101148.06;5050749;28;20420;-61
2022/04/18 05:58:35;;;;;;;6.05;5.45;;;;;;;10.14;52.29;101151.44;5050740;28;20445;-61
2022/04/18 06:01:02;;;;;;;5.65;4.78;;;;;;;10.21;53.29;101159.59;5050844;28;21254;-61
2022/04/18 06:03:30;;;;;;;5.60;5.10;;;;;;;10.26;52.26;101157.31;5050401;28;20423;-61
2022/04/18 06:05:57;;;;;;;5.63;5.13;;;;;;;10.27;53.16;101158.97;5050426;28;20424;-61
2022/04/18 06:08:24;;;;;;;4.65;4.10;;;;;;;10.34;52.87;101157.38;5050180;28;20404;-61
2022/04/18 06:10:51;;;;;;;3.95;3.20;;;;;;;10.55;51.38;101156.16;5050074;28;20464;-61
2022/04/18 06:13:19;;;;;;;3.50;3.20;;;;;;;10.61;52.00;101161.66;5050152;28;20447;-60
2022/04/18 06:15:47;;;;;;;3.67;3.38;;;;;;;10.70;50.73;101155.41;5050548;28;20918;-60
2022/04/18 06:18:14;;;;;;;3.30;3.00;;;;;;;11.17;49.65;101161.19;5055354;28;20412;-61
2022/04/18 06:20:42;;;;;;;3.35;2.90;;;;;;;11.28;49.07;101156.38;5050261;28;20419;-61
2022/04/18 06:23:09;;;;;;;2.97;2.78;;;;;;;11.24;49.52;101165.66;5049972;28;20455;-61
2022/04/18 06:25:36;;;;;;;3.67;2.88;;;;;;;11.99;48.21;101158.56;5050169;28;20417;-61
2022/04/18 06:28:03;;;;;;;2.53;2.33;;;;;;;12.84;45.31;101160.66;5050193;28;20451;-61
2022/04/18 06:30:30;;;;;;;2.55;2.30;;;;;;;13.47;44.48;101155.28;5050011;28;20946;-62
2022/04/18 06:32:57;;;;;;;4.10;3.22;;;;;;;13.69;44.02;101153.63;5049747;28;20425;-61
2022/04/18 06:35:24;;;;;;;2.97;2.58;;;;;;;13.66;43.68;101153.97;5050029;28;20416;-61
2022/04/18 06:37:52;;;;;;;4.03;2.30;;;;;;;14.30;41.93;101145.53;5050061;28;20444;-61
2022/04/18 06:40:19;;;;;;;2.83;2.30;;;;;;;15.24;40.93;101137.63;5049558;28;20790;-61
2022/04/18 06:42:46;;;;;;;2.25;2.05;;;;;;;14.87;40.41;101144.00;5050189;28;20448;-60
2022/04/18 06:45:13;;;;;;;2.28;2.00;;;;;;;15.66;38.51;101133.31;5049504;28;20440;-63
2022/04/18 06:47:40;;;;;;;2.28;1.80;;;;;;;16.02;37.46;101143.03;5049509;28;20424;-61
2022/04/18 06:50:11;;;;;;;3.45;1.90;;;;;;;16.25;37.38;101137.41;5049508;28;20436;-61
2022/04/18 06:52:39;;;;;;;3.43;1.80;;;;;;;16.25;37.63;101142.78;5043376;28;20927;-60
2022/04/18 06:55:09;;;;;;;3.28;2.00;;;;;;;17.70;35.08;101137.25;5057999;28;20915;-61
2022/04/18 06:57:35;;;;;;;2.85;2.30;;;;;;;18.16;33.24;101130.19;5049491;28;20408;-60
2022/04/18 07:00:05;;;;;;;3.70;2.70;;;;;;;18.95;32.42;101122.88;5049711;28;20477;-60
2022/04/18 07:02:32;;;;;;;2.07;1.60;;;;;;;17.57;32.98;101140.75;5049556;28;20421;-60
2022/04/18 07:04:59;;;;;;;1.95;1.60;;;;;;;16.84;34.87;101132.59;5049633;28;20464;-59
2022/04/18 07:07:25;;;;;;;2.10;1.73;;;;;;;18.34;32.60;101132.22;5049577;28;20498;-61
2022/04/18 07:09:52;;;;;;;2.20;1.70;;;;;;;18.21;32.10;101132.25;5049502;28;20435;-60
2022/04/18 07:12:23;;;;;;;1.80;1.70;;;;;;;17.97;33.00;101131.91;5049464;28;20415;-60
2022/04/18 07:14:49;;;;;;;2.75;2.17;;;;;;;18.04;32.81;101127.34;5042819;28;20417;-60
2022/04/18 07:17:16;;;;;;;6.63;2.30;;;;;;;17.63;34.08;101132.91;5049352;28;20417;-61
2022/04/18 07:19:43;;;;;;;2.20;2.00;;;;;;;16.16;36.03;101129.75;5049377;28;20471;-60
2022/04/18 07:22:10;;;;;;;4.60;2.60;;;;;;;16.42;36.59;101139.78;5049409;28;20420;-60
2022/04/18 07:24:37;;;;;;;2.40;2.20;;;;;;;16.16;36.17;101138.59;5042877;28;20503;-60
2022/04/18 07:27:05;;;;;;;2.95;2.70;;;;;;;15.03;38.11;101135.75;5042536;28;20424;-59
2022/04/18 07:29:33;;;;;;;3.10;2.80;;;;;;;15.43;38.29;101138.84;5049155;28;20513;-59
2022/04/18 07:32:00;;;;;;;2.80;2.60;;;;;;;15.29;38.68;101139.75;5042811;28;20459;-59
2022/04/18 07:34:29;;;;;;;4.35;3.00;;;;;;;15.40;38.92;101133.06;5048942;28;20845;-59
2022/04/18 07:36:56;;;;;;;2.75;2.55;;;;;;;16.55;36.85;101125.66;5042210;28;20877;-59
2022/04/18 07:39:23;;;;;;;2.60;2.40;;;;;;;16.90;34.62;101134.44;5054209;28;20927;-59
2022/04/18 07:41:50;;;;;;;2.92;2.70;;;;;;;16.40;35.25;101131.97;5054616;28;20420;-59
2022/04/18 07:44:17;;;;;;;6.93;3.40;;;;;;;14.64;39.31;101133.47;5053752;28;20443;-59
2022/04/18 07:46:45;;;;;;;5.88;3.45;;;;;;;14.46;39.66;101137.34;5049586;28;20417;-59
2022/04/18 07:49:12;;;;;;;3.55;3.25;;;;;;;14.00;40.48;101144.69;5051305;28;20442;-58
2022/04/18 07:51:42;;;;;;;4.10;3.40;;;;;;;13.55;41.96;101142.72;5048947;28;20428;-59
2022/04/18 07:54:11;;;;;;;3.10;2.88;;;;;;;13.86;39.84;101138.31;5048807;28;20405;-59
2022/04/18 07:56:38;;;;;;;3.38;2.50;;;;;;;13.76;39.40;101146.56;5048970;28;20417;-59
2022/04/18 07:59:05;;;;;;;2.40;2.20;;;;;;;13.28;39.71;101140.59;5049005;28;20419;-62
2022/04/18 08:01:32;;;;;;;5.55;3.35;;;;;;;13.58;38.88;101139.72;5048962;28;20408;-63
2022/04/18 08:04:01;;;;;;;4.05;2.80;;;;;;;13.60;39.84;101138.72;5048622;28;20790;-58
2022/04/18 08:06:28;;;;;;;3.03;2.65;;;;;;;13.31;39.37;101135.75;5049170;28;20440;-59
2022/04/18 08:08:55;;;;;;;5.78;3.13;;;;;;;13.11;41.56;101139.88;5048742;28;20421;-62
2022/04/18 08:11:23;;;;;;;4.05;2.85;;;;;;;12.98;41.10;101141.28;5048495;28;20436;-61
2022/04/18 08:13:51;;;;;;;2.92;2.72;;;;;;;13.22;41.68;101141.28;5049896;28;20420;-61
2022/04/18 08:16:18;;;;;;;5.82;2.92;;;;;;;13.61;44.56;101135.03;5050529;28;20455;-61
2022/04/18 08:18:45;;;;;;;2.63;2.42;;;;;;;14.19;40.94;101124.63;5052620;28;20451;-59
2022/04/18 08:21:17;;;;;;;2.70;2.30;;;;;;;14.11;39.62;101123.72;5052772;28;20422;-61
2022/04/18 08:23:44;;;;;;;3.15;2.42;;;;;;;13.95;39.22;101123.88;5052612;28;20418;-60
2022/04/18 08:26:12;;;;;;;3.05;2.83;;;;;;;13.83;39.74;101126.19;5052430;28;20452;-59
2022/04/18 08:28:39;;;;;;;3.15;2.55;;;;;;;13.26;40.55;101124.78;5052286;28;20445;-59
2022/04/18 08:31:07;;;;;;;3.45;2.45;;;;;;;12.20;43.03;101134.13;5052362;28;20439;-59
2022/04/18 08:33:35;;;;;;;2.92;2.38;;;;;;;12.48;42.25;101125.69;5052392;28;20408;-61
2022/04/18 08:36:02;;;;;;;3.15;2.63;;;;;;;12.10;43.07;101120.19;5052406;28;20416;-61
2022/04/18 08:38:31;;;;;;;3.50;2.65;;;;;;;12.39;41.87;101123.09;5052470;28;20416;-61
2022/04/18 08:40:59;;;;;;;2.60;2.40;;;;;;;12.65;40.93;101123.81;5052044;28;20833;-60
2022/04/18 08:43:26;;;;;;;3.17;2.72;;;;;;;12.36;41.52;101123.44;5052254;28;20953;-61
2022/04/18 08:45:54;;;;;;;2.80;2.60;;;;;;;12.44;41.45;101117.25;5052500;28;20577;-60
2022/04/18 08:54:07;;;;;;;12.27;6.35;;;;;;;12.35;41.62;101110.31;5045896;28;20436;-60
2022/04/18 08:56:35;;;;;;;7.88;4.35;;;;;;;12.70;41.30;101108.19;5051916;28;20409;-60
2022/04/18 08:59:02;;;;;;;4.18;3.47;;;;;;;12.88;40.12;101103.41;5051844;28;20423;-60
2022/04/18 09:01:29;;;;;;;3.60;2.70;;;;;;;12.98;40.56;101101.38;5051836;28;20767;-61
2022/04/18 09:03:56;;;;;;;3.45;2.75;;;;;;;13.22;39.74;101099.53;5051774;28;20930;-60
2022/04/18 09:06:25;;;;;;;4.28;3.60;;;;;;;13.33;38.66;101098.31;5052309;28;20452;-60
2022/04/18 09:08:57;;;;;;;2.47;2.28;;;;;;;12.73;39.07;101099.81;5052079;28;20413;-60
2022/04/18 09:11:31;;;;;;;4.00;2.60;;;;;;;12.15;40.46;101097.41;5051642;28;20437;-60
2022/04/18 09:14:05;;;;;;;2.57;2.37;;;;;;;12.72;39.62;101101.66;5051622;28;20914;-62
2022/04/18 09:16:33;;;;;;;2.42;2.22;;;;;;;12.07;41.87;101099.28;5051833;28;20424;-60
2022/04/18 09:19:05;;;;;;;4.00;3.50;;;;;;;12.70;40.46;101093.03;5051924;28;20432;-61
2022/04/18 09:21:32;;;;;;;2.80;2.43;;;;;;;12.98;39.00;101100.50;5051304;28;20459;-60
2022/04/18 09:23:59;;;;;;;2.65;2.40;;;;;;;13.19;38.42;101099.88;5051387;28;20925;-60
2022/04/18 09:26:26;;;;;;;4.15;2.80;;;;;;;13.33;39.33;101100.97;5051481;28;20499;-60
2022/04/18 09:29:04;;;;;;;2.90;2.53;;;;;;;13.25;39.67;101085.84;5051429;28;20503;-62
2022/04/18 09:31:39;;;;;;;2.70;2.50;;;;;;;13.37;39.33;101084.44;5051092;28;20441;-61
2022/04/18 09:34:07;;;;;;;3.30;3.00;;;;;;;13.72;39.15;101086.63;5051452;28;20420;-61
2022/04/18 09:36:34;;;;;;;2.40;2.20;;;;;;;13.82;38.39;101083.72;5051344;28;20424;-61
2022/04/18 09:39:00;;;;;;;3.55;2.90;;;;;;;14.14;38.52;101078.03;5051096;28;20412;-60
2022/04/18 09:41:29;;;;;;;3.70;2.60;;;;;;;14.19;37.63;101082.81;5051057;28;20767;-61
2022/04/18 09:43:58;;;;;;;2.53;2.10;;;;;;;14.02;37.16;101068.84;5051050;28;20482;-61
2022/04/18 09:46:26;;;;;;;4.15;2.67;;;;;;;14.14;37.45;101070.03;5051070;28;20413;-61
2022/04/18 09:49:01;;;;;;;3.00;2.10;;;;;;;13.74;37.31;101071.31;5050134;28;20467;-61
2022/04/18 09:51:30;;;;;;;2.35;2.15;;;;;;;13.82;37.32;101076.56;5049094;28;20482;-63
2022/04/18 09:53:59;;;;;;;3.30;2.60;;;;;;;13.75;38.24;101064.97;5048276;28;20424;-62
2022/04/18 09:56:27;;;;;;;5.80;3.53;;;;;;;14.07;37.51;101061.13;5048723;28;20427;-62
2022/04/18 09:58:58;;;;;;;10.00;7.63;;;;;;;14.29;37.87;101055.88;5050300;28;20408;-60
2022/04/18 10:01:27;;;;;;;3.90;3.53;;;;;;;14.35;37.14;101060.47;5050518;28;20440;-60
2022/04/18 10:03:55;;;;;;;3.40;3.10;;;;;;;14.32;37.65;101056.31;5050029;28;20423;-61
2022/04/18 10:06:22;;;;;;;3.20;2.47;;;;;;;14.17;37.88;101054.69;5048442;28;20791;-61
2022/04/18 10:08:52;;;;;;;5.50;2.53;;;;;;;14.07;37.62;101053.13;5049683;28;20452;-61
2022/04/18 10:11:20;;;;;;;3.80;2.60;;;;;;;14.11;37.56;101054.41;5050327;28;20428;-60
2022/04/18 10:13:47;;;;;;;3.05;2.20;;;;;;;14.17;37.29;101055.53;5050465;28;20794;-60
2022/04/18 10:16:15;;;;;;;4.38;2.17;;;;;;;13.99;37.18;101057.72;5050453;28;20937;-60
2022/04/18 10:18:47;;;;;;;3.25;3.00;;;;;;;14.05;36.66;101059.66;5050338;28;20421;-61
2022/04/18 10:21:25;;;;;;;3.10;2.20;;;;;;;13.72;37.24;101057.34;5050651;28;20419;-61
2022/04/18 10:24:20;;;;;;;2.53;2.33;;;;;;;13.91;36.63;101047.97;5050232;28;20795;-61
2022/04/18 10:27:20;;;;;;;3.43;2.03;;;;;;;13.99;36.64;101052.38;5050193;28;20947;-61
2022/04/18 10:29:50;;;;;;;3.58;2.97;;;;;;;13.96;36.48;101041.09;5050282;28;20448;-60
2022/04/18 10:32:22;;;;;;;4.88;3.40;;;;;;;13.98;36.46;101040.91;5049956;28;20489;-60
2022/04/18 10:34:51;;;;;;;3.15;2.60;;;;;;;13.91;36.86;101046.13;5049983;28;20423;-60
2022/04/18 10:37:23;;;;;;;3.28;2.40;;;;;;;13.87;37.17;101038.72;5050404;28;20417;-59
2022/04/18 10:39:58;;;;;;;4.95;3.30;;;;;;;13.77;37.63;101038.97;5049533;28;20913;-60
2022/04/18 10:42:30;;;;;;;3.85;2.92;;;;;;;13.74;37.98;101040.16;5049903;28;20420;-61
2022/04/18 10:45:11;;;;;;;2.60;2.28;;;;;;;13.54;37.53;101039.88;5049810;28;20412;-61
2022/04/18 10:48:01;;;;;;;2.65;2.08;;;;;;;13.61;37.11;101028.47;5050168;28;20412;-60
2022/04/18 10:50:34;;;;;;;2.42;2.20;;;;;;;13.48;37.83;101021.13;5049545;28;20782;-60
2022/04/18 10:53:13;;;;;;;3.22;2.80;;;;;;;13.70;37.14;101020.25;5049646;28;20786;-60
2022/04/18 10:55:42;;;;;;;4.35;2.55;;;;;;;13.76;36.95;101010.69;5050127;28;20412;-61
2022/04/18 10:58:12;;;;;;;2.50;2.30;;;;;;;13.74;36.75;101010.03;5049680;28;20451;-61
2022/04/18 11:00:50;;;;;;;3.50;2.40;;;;;;;13.76;36.12;101013.34;5049933;28;20419;-60
2022/04/18 11:03:50;;;;;;;2.20;1.95;;;;;;;13.35;36.36;101013.75;5049900;28;20487;-61
2022/04/18 11:06:48;;;;;;;2.23;2.00;;;;;;;13.39;36.08;101002.53;5049481;28;20914;-61
2022/04/18 11:09:17;;;;;;;2.63;2.00;;;;;;;13.52;36.03;101007.28;5049545;28;20436;-60
2022/04/18 11:11:48;;;;;;;2.05;1.85;;;;;;;13.62;35.87;100992.84;5049586;28;20428;-61
2022/04/18 11:14:17;;;;;;;2.10;1.90;;;;;;;13.79;35.15;100990.81;5049399;28;20416;-61
2022/04/18 11:16:52;;;;;;;2.00;1.90;;;;;;;13.79;36.15;100990.81;5049407;28;20809;-60
2022/04/18 11:19:22;;;;;;;3.60;2.22;;;;;;;13.52;35.97;100985.13;5049528;28;20409;-60
2022/04/18 11:22:18;;;;;;;2.43;2.00;;;;;;;13.69;35.22;100983.13;5049646;28;20413;-60
2022/04/18 11:25:00;;;;;;;2.75;2.20;;;;;;;13.86;34.37;100986.41;5049263;28;20440;-60
2022/04/18 11:27:38;;;;;;;2.67;2.13;;;;;;;13.92;34.17;100981.19;5049263;28;20487;-60
2022/04/18 11:30:10;;;;;;;2.45;2.20;;;;;;;14.01;34.52;100978.41;5049370;28;21013;-61
2022/04/18 11:32:39;;;;;;;2.10;1.90;;;;;;;14.05;34.36;100969.84;5049375;28;20498;-60
2022/04/18 11:35:08;;;;;;;2.28;2.05;;;;;;;13.88;34.18;100968.41;5049226;28;20440;-59
2022/04/18 11:37:39;;;;;;;2.03;1.90;;;;;;;14.02;33.72;100978.22;5049533;28;20448;-61
2022/04/18 11:40:09;;;;;;;2.65;1.90;;;;;;;13.60;35.12;100970.91;5049144;28;20496;-60
2022/04/18 11:42:37;;;;;;;2.58;1.83;;;;;;;13.82;34.48;100969.97;5049099;28;20420;-64
2022/04/18 11:45:06;;;;;;;2.15;1.58;;;;;;;13.88;33.88;100965.72;5049101;28;20507;-59
2022/04/18 11:47:38;;;;;;;1.98;1.80;;;;;;;14.03;33.88;100961.22;5049775;28;20445;-59
2022/04/18 11:50:07;;;;;;;2.00;1.90;;;;;;;14.10;33.31;100963.97;5049376;28;20412;-61
2022/04/18 11:52:35;;;;;;;1.90;1.80;;;;;;;14.16;33.33;100960.53;5052951;28;20953;-60
2022/04/18 11:55:06;;;;;;;1.90;1.70;;;;;;;14.15;33.50;100953.53;5053417;28;20444;-60
2022/04/18 11:57:34;;;;;;;3.58;2.13;;;;;;;14.19;32.82;100951.34;5052966;28;20989;-61
2022/04/18 12:00:02;;;;;;;2.35;2.05;;;;;;;14.10;33.63;100951.47;5053281;28;20416;-59